Time,TemperatureF,DewpointF,PressureIn,WindDirection,WindDirectionDegrees,WindSpeedMPH,WindSpeedGustMPH,Humidity,HourlyPrecipIn,Conditions,Clouds,dailyrainin,SoftwareType,DateUTC
2016-07-27 06:33:00,71.2,70.9,29.78,West,270,0.0,-999.0,99,-99.99,,,0.00,Acu-Link.com,2016-07-27 10:33:00,
2016-07-27 06:48:00,71.1,70.8,29.79,NNE,22,0.0,-999.0,99,-99.99,,,0.00,Acu-Link.com,2016-07-27 10:48:00,
2016-07-27 07:03:00,71.1,70.8,29.79,NNW,337,0.0,-999.0,99,-99.99,,,0.00,Acu-Link.com,2016-07-27 11:03:00,
2016-07-27 07:19:00,71.6,71.3,29.80,WNW,292,0.0,-999.0,99,-99.99,,,0.00,Acu-Link.com,2016-07-27 11:19:00,
2016-07-27 07:34:00,72.7,72.4,29.80,NNW,337,0.0,-999.0,99,-99.99,,,0.00,Acu-Link.com,2016-07-27 11:34:00,
2016-07-27 07:49:00,73.6,73.3,29.80,NW,315,0.0,-999.0,99,-99.99,,,0.00,Acu-Link.com,2016-07-27 11:49:00,
2016-07-27 08:04:00,73.9,73.6,29.81,NW,315,0.0,-999.0,99,-99.99,,,0.00,Acu-Link.com,2016-07-27 12:04:00,
2016-07-27 08:20:00,75.0,74.7,29.81,NW,315,0.0,-999.0,99,-99.99,,,0.00,Acu-Link.com,2016-07-27 12:20:00,
2016-07-27 08:35:00,75.9,75.6,29.81,NW,315,0.0,-999.0,99,-99.99,,,0.00,Acu-Link.com,2016-07-27 12:35:00,
2016-07-27 08:51:00,77.5,77.2,29.82,WNW,292,0.0,-999.0,99,-99.99,,,0.00,Acu-Link.com,2016-07-27 12:51:00,
2016-07-27 09:06:00,78.3,78.0,29.80,WNW,292,0.0,-999.0,99,-99.99,,,0.00,Acu-Link.com,2016-07-27 13:06:00,
2016-07-27 09:21:00,79.2,78.6,29.80,WNW,292,0.0,-999.0,98,-99.99,,,0.00,Acu-Link.com,2016-07-27 13:21:00,
2016-07-27 09:36:00,79.9,78.7,29.80,West,270,0.0,-999.0,96,-99.99,,,0.00,Acu-Link.com,2016-07-27 13:36:00,
2016-07-27 09:51:00,80.2,79.0,29.80,WNW,292,0.0,-999.0,96,-99.99,,,0.00,Acu-Link.com,2016-07-27 13:51:00,
2016-07-27 10:07:00,81.7,79.1,29.80,West,270,0.0,-999.0,92,-99.99,,,0.00,Acu-Link.com,2016-07-27 14:07:00,
2016-07-27 10:22:00,82.4,77.8,29.79,North,0,0.0,-999.0,86,-99.99,,,0.00,Acu-Link.com,2016-07-27 14:22:00,
2016-07-27 10:38:00,83.7,78.7,29.79,SW,225,0.0,-999.0,85,-99.99,,,0.00,Acu-Link.com,2016-07-27 14:38:00,
2016-07-27 10:53:00,82.0,77.7,29.79,NNW,337,0.0,-999.0,87,-99.99,,,0.00,Acu-Link.com,2016-07-27 14:53:00,
2016-07-27 11:09:00,83.1,78.5,29.78,SE,135,0.0,-999.0,86,-99.99,,,0.00,Acu-Link.com,2016-07-27 15:09:00,
2016-07-27 11:24:00,85.1,78.2,29.79,SSE,157,0.0,-999.0,80,-99.99,,,0.00,Acu-Link.com,2016-07-27 15:24:00,
2016-07-27 11:43:00,83.7,78.0,29.79,NW,315,0.0,-999.0,83,-99.99,,,0.00,Acu-Link.com,2016-07-27 15:43:00,
2016-07-27 11:58:00,84.7,78.6,29.79,South,180,0.0,-999.0,82,-99.99,,,0.00,Acu-Link.com,2016-07-27 15:58:00,
2016-07-27 12:13:00,87.1,79.8,29.79,SSE,157,0.0,-999.0,79,-99.99,,,0.00,Acu-Link.com,2016-07-27 16:13:00,
2016-07-27 12:28:00,84.0,78.6,29.79,WNW,292,0.0,-999.0,84,-99.99,,,0.00,Acu-Link.com,2016-07-27 16:28:00,
2016-07-27 12:43:00,82.4,77.4,29.79,NW,315,0.0,-999.0,85,-99.99,,,0.00,Acu-Link.com,2016-07-27 16:43:00,
2016-07-27 12:59:00,84.9,79.1,29.79,SSW,202,0.0,-999.0,83,-99.99,,,0.00,Acu-Link.com,2016-07-27 16:59:00,
2016-07-27 13:14:00,88.5,78.7,29.78,SW,225,0.0,-999.0,73,-99.99,,,0.00,Acu-Link.com,2016-07-27 17:14:00,
2016-07-27 13:29:00,86.4,77.9,29.78,WNW,292,0.0,-999.0,76,-99.99,,,0.00,Acu-Link.com,2016-07-27 17:29:00,
2016-07-27 13:44:00,85.1,77.1,29.78,WNW,292,0.0,-999.0,77,-99.99,,,0.00,Acu-Link.com,2016-07-27 17:44:00,
2016-07-27 13:59:00,86.2,78.5,29.78,WNW,292,0.0,-999.0,78,-99.99,,,0.00,Acu-Link.com,2016-07-27 17:59:00,
2016-07-27 14:15:00,87.1,79.4,29.78,NW,315,0.0,-999.0,78,-99.99,,,0.00,Acu-Link.com,2016-07-27 18:15:00,
2016-07-27 14:30:00,86.0,78.3,29.77,SE,135,0.0,-999.0,78,-99.99,,,0.00,Acu-Link.com,2016-07-27 18:30:00,